Time;durP1;ratioP1;P1;durP2;ratioP2;P2;SDS_P1;SDS_P2;PMS_P1;PMS_P2;Temp;Humidity;BMP_temperature;BMP_pressure;BME280_temperature;BME280_humidity;BME280_pressure;Samples;Min_cycle;Max_cycle;Signal;HPM_P1;HPM_P2
2022/04/23 00:02:19;;;;;;;1.40;0.50;;;;;;;;;;6206629;23;20369;-47
2022/04/23 00:04:45;;;;;;;0.30;0.30;;;;;;;;;;6207041;23;20485;-50
2022/04/23 00:07:11;;;;;;;0.40;0.40;;;;;;;;;;6207030;23;20051;-49
2022/04/23 00:09:37;;;;;;;0.40;0.40;;;;;;;;;;6179912;23;20054;-49
2022/04/23 00:12:04;;;;;;;0.40;0.35;;;;;;;;;;6207426;23;20347;-48
2022/04/23 00:14:30;;;;;;;1.23;0.40;;;;;;;;;;6207267;23;20001;-46
2022/04/23 00:17:00;;;;;;;0.30;0.30;;;;;;;;;;6207463;23;20005;-46
2022/04/23 00:19:26;;;;;;;0.88;0.40;;;;;;;;;;6207641;23;20005;-49
2022/04/23 00:21:53;;;;;;;0.30;0.30;;;;;;;;;;6206462;23;20016;-46
2022/04/23 00:24:20;;;;;;;1.08;0.60;;;;;;;;;;6206648;23;20012;-48
2022/04/23 00:26:46;;;;;;;0.40;0.40;;;;;;;;;;6206420;23;20004;-48
2022/04/23 00:29:12;;;;;;;0.30;0.30;;;;;;;;;;6207057;23;20001;-49
2022/04/23 00:31:38;;;;;;;0.82;0.43;;;;;;;;;;6204960;23;19996;-49
2022/04/23 00:34:04;;;;;;;0.80;0.40;;;;;;;;;;6207010;23;20015;-48
2022/04/23 00:36:30;;;;;;;0.70;0.40;;;;;;;;;;6206038;23;20005;-46
2022/04/23 00:38:57;;;;;;;0.73;0.40;;;;;;;;;;6207499;23;20084;-47
2022/04/23 00:44:09;;;;;;;0.50;0.50;;;;;;;;;;6206938;23;20019;-49
2022/04/23 00:46:35;;;;;;;0.40;0.40;;;;;;;;;;6205747;23;20016;-48
2022/04/23 00:49:03;;;;;;;0.68;0.43;;;;;;;;;;6206662;23;19997;-47
2022/04/23 00:51:30;;;;;;;0.60;0.40;;;;;;;;;;6207048;23;20060;-46
2022/04/23 00:53:57;;;;;;;0.68;0.40;;;;;;;;;;6207759;23;20054;-47
2022/04/23 00:56:23;;;;;;;0.35;0.35;;;;;;;;;;6206276;23;20048;-46
2022/04/23 00:58:49;;;;;;;0.50;0.50;;;;;;;;;;6206583;23;20017;-47
2022/04/23 01:01:15;;;;;;;0.50;0.40;;;;;;;;;;6206734;23;20051;-49
2022/04/23 01:03:45;;;;;;;0.40;0.30;;;;;;;;;;6206201;23;20353;-47
2022/04/23 01:06:11;;;;;;;0.30;0.30;;;;;;;;;;6206466;23;20088;-49
2022/04/23 01:08:37;;;;;;;0.60;0.43;;;;;;;;;;6206355;23;20027;-47
2022/04/23 01:11:04;;;;;;;0.40;0.40;;;;;;;;;;6207016;23;20001;-50
2022/04/23 01:13:30;;;;;;;0.65;0.35;;;;;;;;;;6207016;23;20078;-47
2022/04/23 01:16:02;;;;;;;0.47;0.40;;;;;;;;;;6206337;23;20008;-48
2022/04/23 01:18:28;;;;;;;0.47;0.47;;;;;;;;;;6206511;23;20082;-46
2022/04/23 01:20:56;;;;;;;0.40;0.40;;;;;;;;;;6206462;23;20009;-49
2022/04/23 01:23:22;;;;;;;0.60;0.40;;;;;;;;;;6206282;23;20207;-50
2022/04/23 01:25:54;;;;;;;0.50;0.40;;;;;;;;;;6205861;23;20078;-48
2022/04/23 01:28:21;;;;;;;0.40;0.40;;;;;;;;;;6206319;23;20011;-48
2022/04/23 01:30:51;;;;;;;0.35;0.30;;;;;;;;;;6206068;23;20408;-49
2022/04/23 01:33:17;;;;;;;0.40;0.40;;;;;;;;;;6205903;23;20051;-47
2022/04/23 01:35:45;;;;;;;0.85;0.40;;;;;;;;;;6205471;23;20005;-47
2022/04/23 01:38:12;;;;;;;0.43;0.40;;;;;;;;;;6206197;23;20004;-47
2022/04/23 01:40:40;;;;;;;0.40;0.40;;;;;;;;;;6179111;23;20249;-49
2022/04/23 01:43:07;;;;;;;0.43;0.40;;;;;;;;;;6206262;23;20454;-47
2022/04/23 01:45:33;;;;;;;0.40;0.40;;;;;;;;;;6205763;23;20000;-49
2022/04/23 01:47:59;;;;;;;0.30;0.30;;;;;;;;;;6206403;23;20009;-50
2022/04/23 01:50:25;;;;;;;0.50;0.40;;;;;;;;;;6205907;23;20023;-47
2022/04/23 01:52:52;;;;;;;0.40;0.40;;;;;;;;;;6205563;23;20397;-48
2022/04/23 01:55:18;;;;;;;0.63;0.40;;;;;;;;;;6205720;23;20008;-49
2022/04/23 01:57:45;;;;;;;0.43;0.43;;;;;;;;;;6205626;23;20517;-46
2022/04/23 02:00:14;;;;;;;0.88;0.40;;;;;;;;;;6206153;23;20509;-47
2022/04/23 02:02:40;;;;;;;1.13;0.60;;;;;;;;;;6205177;23;20017;-46
2022/04/23 02:05:06;;;;;;;0.63;0.50;;;;;;;;;;6205854;23;20011;-47
2022/04/23 02:07:39;;;;;;;0.40;0.40;;;;;;;;;;6205714;23;19997;-47
2022/04/23 02:10:05;;;;;;;0.40;0.40;;;;;;;;;;6206031;23;20516;-47
2022/04/23 02:12:31;;;;;;;0.55;0.50;;;;;;;;;;6205353;23;20004;-46
2022/04/23 02:14:58;;;;;;;1.95;0.73;;;;;;;;;;6206546;23;20290;-47
2022/04/23 02:17:34;;;;;;;0.88;0.70;;;;;;;;;;6205596;23;20361;-47
2022/04/23 02:20:06;;;;;;;1.13;0.55;;;;;;;;;;6206205;23;20020;-49
2022/04/23 02:22:32;;;;;;;1.00;0.68;;;;;;;;;;6205058;23;20004;-50
2022/04/23 02:24:58;;;;;;;0.73;0.60;;;;;;;;;;6206915;23;20004;-49
2022/04/23 02:27:24;;;;;;;1.05;0.60;;;;;;;;;;6205582;23;20001;-50
2022/04/23 02:29:54;;;;;;;0.73;0.57;;;;;;;;;;6203655;23;20005;-47
2022/04/23 02:32:20;;;;;;;1.10;0.68;;;;;;;;;;6205414;23;20008;-49
2022/04/23 02:34:46;;;;;;;0.55;0.55;;;;;;;;;;6204316;23;20008;-49
2022/04/23 02:37:13;;;;;;;0.93;0.55;;;;;;;;;;6206574;23;20095;-48
2022/04/23 02:39:39;;;;;;;1.17;0.70;;;;;;;;;;6205826;23;20438;-47
2022/04/23 02:42:06;;;;;;;1.35;0.80;;;;;;;;;;6205859;23;20388;-49
2022/04/23 02:44:34;;;;;;;1.20;0.70;;;;;;;;;;6205061;23;20006;-50
2022/04/23 02:47:00;;;;;;;0.75;0.60;;;;;;;;;;6205184;23;20011;-47
2022/04/23 02:49:26;;;;;;;1.08;0.70;;;;;;;;;;6205300;23;20007;-48
2022/04/23 02:51:52;;;;;;;2.78;0.85;;;;;;;;;;6205148;23;20012;-48
2022/04/23 02:54:18;;;;;;;1.15;0.70;;;;;;;;;;6205413;23;20004;-45
2022/04/23 02:56:45;;;;;;;0.88;0.70;;;;;;;;;;6206056;23;20031;-48
2022/04/23 02:59:12;;;;;;;0.90;0.60;;;;;;;;;;6206323;23;20484;-49
2022/04/23 03:01:39;;;;;;;1.30;0.85;;;;;;;;;;6204922;23;20066;-48
2022/04/23 03:04:08;;;;;;;1.63;0.60;;;;;;;;;;6205036;23;20086;-50
2022/04/23 03:06:34;;;;;;;0.88;0.60;;;;;;;;;;6205081;23;19993;-48
2022/04/23 03:09:03;;;;;;;2.13;0.68;;;;;;;;;;6205242;23;20001;-48
2022/04/23 03:11:30;;;;;;;1.13;0.60;;;;;;;;;;6205193;23;20026;-46
2022/04/23 03:13:58;;;;;;;0.60;0.60;;;;;;;;;;6205489;23;20492;-47
2022/04/23 03:16:26;;;;;;;0.70;0.50;;;;;;;;;;6205162;23;20005;-47
2022/04/23 03:18:52;;;;;;;0.60;0.50;;;;;;;;;;6204996;23;20481;-49
2022/04/23 03:21:19;;;;;;;0.57;0.57;;;;;;;;;;6205314;23;20008;-46
2022/04/23 03:23:45;;;;;;;0.73;0.50;;;;;;;;;;6205483;23;20020;-45
2022/04/23 03:26:11;;;;;;;0.85;0.55;;;;;;;;;;6205960;23;19996;-48
2022/04/23 03:28:37;;;;;;;0.55;0.50;;;;;;;;;;6205074;23;20008;-46
2022/04/23 03:31:04;;;;;;;1.00;0.63;;;;;;;;;;6205039;23;20086;-49
2022/04/23 03:33:30;;;;;;;0.95;0.57;;;;;;;;;;6204660;23;20072;-50
2022/04/23 03:35:57;;;;;;;0.70;0.70;;;;;;;;;;6205264;23;20004;-50
2022/04/23 03:38:23;;;;;;;0.50;0.50;;;;;;;;;;6205310;23;20012;-49
2022/04/23 03:40:53;;;;;;;0.68;0.52;;;;;;;;;;6205144;23;20028;-49
2022/04/23 03:43:20;;;;;;;0.82;0.40;;;;;;;;;;6205134;23;20005;-48
2022/04/23 03:45:47;;;;;;;1.15;0.60;;;;;;;;;;6204568;23;20036;-48
2022/04/23 03:48:14;;;;;;;0.63;0.63;;;;;;;;;;6206167;23;19997;-49
2022/04/23 03:50:41;;;;;;;0.55;0.55;;;;;;;;;;6204904;23;19997;-46
2022/04/23 03:53:09;;;;;;;1.02;0.65;;;;;;;;;;6205217;23;20019;-47
2022/04/23 03:55:35;;;;;;;0.70;0.50;;;;;;;;;;6204758;23;20008;-48
2022/04/23 03:58:02;;;;;;;0.50;0.50;;;;;;;;;;6204708;23;20012;-47
2022/04/23 04:00:31;;;;;;;1.15;0.50;;;;;;;;;;6204911;23;20008;-49
2022/04/23 04:02:57;;;;;;;0.88;0.60;;;;;;;;;;6205464;23;20059;-49
2022/04/23 04:05:25;;;;;;;0.70;0.45;;;;;;;;;;6205041;23;20011;-47
2022/04/23 04:07:52;;;;;;;0.80;0.60;;;;;;;;;;6204704;23;20011;-50
2022/04/23 04:10:19;;;;;;;0.63;0.60;;;;;;;;;;6205217;23;20466;-46
2022/04/23 04:12:45;;;;;;;0.68;0.40;;;;;;;;;;6205642;23;20084;-45
2022/04/23 04:15:16;;;;;;;1.17;1.02;;;;;;;;;;6205534;23;20015;-49
2022/04/23 04:17:42;;;;;;;0.85;0.70;;;;;;;;;;6205489;23;20284;-46
2022/04/23 04:20:11;;;;;;;0.82;0.60;;;;;;;;;;6205298;23;20462;-46
2022/04/23 04:22:37;;;;;;;1.08;0.70;;;;;;;;;;6204798;23;20027;-49
2022/04/23 04:25:03;;;;;;;0.40;0.40;;;;;;;;;;6205561;23;20001;-48
2022/04/23 04:27:29;;;;;;;0.80;0.57;;;;;;;;;;6202473;23;20024;-48
2022/04/23 04:29:56;;;;;;;0.68;0.47;;;;;;;;;;6206016;23;20004;-47
2022/04/23 04:32:22;;;;;;;0.50;0.30;;;;;;;;;;6204209;23;19997;-46
2022/04/23 04:34:49;;;;;;;1.05;0.50;;;;;;;;;;6204863;23;20028;-47
2022/04/23 04:37:15;;;;;;;0.65;0.50;;;;;;;;;;6205056;23;20115;-45
2022/04/23 04:39:42;;;;;;;0.88;0.52;;;;;;;;;;6204617;23;20039;-46
2022/04/23 04:42:09;;;;;;;1.13;0.60;;;;;;;;;;6205124;23;20337;-48
2022/04/23 04:44:35;;;;;;;0.40;0.40;;;;;;;;;;6204038;23;20005;-48
2022/04/23 04:47:01;;;;;;;2.63;0.60;;;;;;;;;;6206425;23;20060;-47
2022/04/23 04:49:27;;;;;;;0.80;0.50;;;;;;;;;;6207487;23;20563;-50
2022/04/23 04:51:53;;;;;;;0.52;0.50;;;;;;;;;;6206707;23;20001;-46
2022/04/23 04:54:21;;;;;;;0.82;0.63;;;;;;;;;;6206843;23;20012;-49
2022/04/23 04:56:49;;;;;;;0.85;0.47;;;;;;;;;;6179811;23;20000;-49
2022/04/23 04:59:15;;;;;;;0.50;0.50;;;;;;;;;;6206560;23;20578;-49
2022/04/23 05:01:41;;;;;;;1.20;0.40;;;;;;;;;;6206191;23;20016;-48
2022/04/23 05:04:08;;;;;;;0.82;0.60;;;;;;;;;;6206580;23;20024;-49
2022/04/23 05:06:35;;;;;;;0.73;0.60;;;;;;;;;;6206304;23;20349;-46
2022/04/23 05:09:01;;;;;;;0.88;0.57;;;;;;;;;;6206659;23;20338;-47
2022/04/23 05:11:27;;;;;;;0.88;0.50;;;;;;;;;;6207421;23;20039;-48
2022/04/23 05:13:53;;;;;;;0.47;0.47;;;;;;;;;;6206961;23;20005;-48
2022/04/23 05:16:20;;;;;;;0.60;0.47;;;;;;;;;;6206572;23;20051;-49
2022/04/23 05:18:46;;;;;;;0.30;0.30;;;;;;;;;;6206494;23;20012;-49
2022/04/23 05:21:12;;;;;;;0.40;0.40;;;;;;;;;;6206613;23;20005;-46
2022/04/23 05:23:38;;;;;;;0.65;0.60;;;;;;;;;;6205821;23;20008;-48
2022/04/23 05:26:05;;;;;;;0.95;0.47;;;;;;;;;;6206452;23;20143;-49
2022/04/23 05:28:33;;;;;;;1.48;0.40;;;;;;;;;;6206226;23;20000;-48
2022/04/23 05:30:59;;;;;;;0.43;0.43;;;;;;;;;;6206089;23;20509;-50
2022/04/23 05:33:25;;;;;;;0.60;0.50;;;;;;;;;;6207159;23;20047;-48
2022/04/23 05:35:51;;;;;;;0.93;0.60;;;;;;;;;;6205991;23;20021;-47
2022/04/23 05:38:20;;;;;;;0.47;0.47;;;;;;;;;;6206443;23;20017;-49
2022/04/23 05:40:48;;;;;;;0.40;0.40;;;;;;;;;;6205849;23;20454;-48
2022/04/23 05:43:15;;;;;;;1.10;0.50;;;;;;;;;;6206289;23;20501;-45
2022/04/23 05:45:43;;;;;;;0.60;0.60;;;;;;;;;;6205551;23;20012;-50
2022/04/23 05:48:09;;;;;;;0.30;0.30;;;;;;;;;;6206332;23;20349;-49
2022/04/23 05:50:35;;;;;;;0.70;0.52;;;;;;;;;;6205928;23;19997;-49
2022/04/23 05:53:01;;;;;;;0.50;0.50;;;;;;;;;;6206025;23;20011;-49
2022/04/23 05:55:28;;;;;;;0.70;0.50;;;;;;;;;;6206567;23;20350;-47
2022/04/23 05:57:54;;;;;;;1.23;0.60;;;;;;;;;;6205743;23;20004;-49
2022/04/23 06:00:20;;;;;;;1.30;0.47;;;;;;;;;;6205834;23;20503;-49
2022/04/23 06:02:47;;;;;;;0.73;0.40;;;;;;;;;;6205802;23;20034;-50
2022/04/23 06:05:14;;;;;;;0.45;0.45;;;;;;;;;;6205941;23;20000;-49
2022/04/23 06:07:41;;;;;;;0.65;0.50;;;;;;;;;;6205614;23;20075;-49
2022/04/23 06:10:07;;;;;;;0.60;0.60;;;;;;;;;;6206368;23;20005;-49
2022/04/23 06:12:34;;;;;;;0.52;0.40;;;;;;;;;;6205410;23;20461;-49
2022/04/23 06:15:01;;;;;;;0.40;0.40;;;;;;;;;;6205784;23;20005;-49
2022/04/23 06:17:27;;;;;;;1.75;0.60;;;;;;;;;;6206628;23;20474;-47
2022/04/23 06:19:55;;;;;;;0.60;0.50;;;;;;;;;;6206597;23;20000;-49
2022/04/23 06:22:22;;;;;;;0.40;0.40;;;;;;;;;;6205852;23;20135;-48
2022/04/23 06:24:48;;;;;;;0.93;0.50;;;;;;;;;;6205592;23;20062;-50
2022/04/23 06:27:14;;;;;;;0.50;0.50;;;;;;;;;;6205934;23;20000;-46
2022/04/23 06:29:41;;;;;;;0.30;0.30;;;;;;;;;;6205651;23;20342;-49
2022/04/23 06:32:07;;;;;;;0.60;0.40;;;;;;;;;;6205544;23;20010;-47
2022/04/23 06:34:34;;;;;;;0.60;0.55;;;;;;;;;;6205429;23;20009;-48
2022/04/23 06:37:00;;;;;;;1.48;0.47;;;;;;;;;;6205880;23;20004;-49
2022/04/23 06:39:26;;;;;;;0.50;0.50;;;;;;;;;;6206569;23;20004;-50
2022/04/23 06:41:53;;;;;;;0.60;0.60;;;;;;;;;;6205204;23;20357;-48
2022/04/23 06:44:19;;;;;;;1.13;0.82;;;;;;;;;;6205424;23;20008;-46
2022/04/23 06:46:45;;;;;;;0.57;0.50;;;;;;;;;;6205326;23;20354;-49
2022/04/23 06:49:11;;;;;;;0.40;0.40;;;;;;;;;;6205801;23;20319;-49
2022/04/23 06:51:40;;;;;;;0.40;0.40;;;;;;;;;;6205089;23;20001;-50
2022/04/23 06:54:06;;;;;;;0.40;0.32;;;;;;;;;;6205948;23;20027;-49
2022/04/23 06:56:32;;;;;;;1.02;0.60;;;;;;;;;;6205057;23;20494;-49
2022/04/23 06:58:59;;;;;;;0.40;0.40;;;;;;;;;;6179286;23;20008;-47
2022/04/23 07:01:25;;;;;;;0.95;0.50;;;;;;;;;;6206306;23;20039;-48
2022/04/23 07:03:51;;;;;;;0.50;0.50;;;;;;;;;;6206305;23;20000;-49
2022/04/23 07:06:17;;;;;;;1.23;0.55;;;;;;;;;;6207018;23;20005;-49
2022/04/23 07:08:44;;;;;;;0.47;0.47;;;;;;;;;;6206641;23;20000;-46
2022/04/23 07:11:13;;;;;;;0.75;0.60;;;;;;;;;;6206720;23;20021;-49
2022/04/23 07:13:39;;;;;;;0.80;0.60;;;;;;;;;;6206501;23;20055;-50
2022/04/23 07:16:07;;;;;;;1.70;0.65;;;;;;;;;;6206995;23;19997;-47
2022/04/23 07:18:33;;;;;;;1.17;0.70;;;;;;;;;;6206309;23;20028;-46
2022/04/23 07:21:00;;;;;;;0.63;0.60;;;;;;;;;;6205319;23;20008;-47
2022/04/23 07:26:11;;;;;;;0.50;0.50;;;;;;;;;;6207034;23;20028;-49
2022/04/23 07:28:38;;;;;;;0.85;0.60;;;;;;;;;;6206801;23;20008;-49
2022/04/23 07:31:05;;;;;;;0.60;0.55;;;;;;;;;;6206855;23;20000;-50
2022/04/23 07:39:00;;;;;;;;;;;;;;;;;;6207501;23;20051;-48
2022/04/23 07:41:29;;;;;;;1.23;0.70;;;;;;;;;;6207329;23;19903;-47
2022/04/23 07:43:56;;;;;;;1.00;0.70;;;;;;;;;;6207252;23;20016;-49
2022/04/23 07:46:23;;;;;;;1.58;0.70;;;;;;;;;;6206518;23;20493;-46
2022/04/23 07:48:50;;;;;;;1.15;0.60;;;;;;;;;;6206445;23;20012;-49
2022/04/23 07:51:16;;;;;;;0.75;0.50;;;;;;;;;;6207056;23;20100;-47
2022/04/23 07:53:42;;;;;;;0.65;0.60;;;;;;;;;;6205972;23;20386;-49
2022/04/23 07:56:08;;;;;;;1.35;0.80;;;;;;;;;;6206987;23;20055;-46
2022/04/23 07:58:35;;;;;;;1.20;0.77;;;;;;;;;;6179615;23;20008;-49
2022/04/23 08:01:01;;;;;;;1.55;0.80;;;;;;;;;;6205646;23;20389;-48
2022/04/23 08:03:28;;;;;;;1.63;0.80;;;;;;;;;;6207427;23;20009;-49
2022/04/23 08:05:54;;;;;;;0.75;0.68;;;;;;;;;;6208391;23;20005;-46
2022/04/23 08:08:23;;;;;;;1.15;0.63;;;;;;;;;;6207492;23;20008;-47
2022/04/23 08:10:49;;;;;;;1.63;0.70;;;;;;;;;;6207673;23;20330;-49
2022/04/23 08:13:16;;;;;;;1.00;0.80;;;;;;;;;;6205816;23;20011;-50
2022/04/23 08:15:42;;;;;;;1.17;0.80;;;;;;;;;;6206567;23;20013;-47
2022/04/23 08:18:08;;;;;;;0.70;0.70;;;;;;;;;;6206951;23;20008;-48
2022/04/23 08:20:34;;;;;;;1.00;0.73;;;;;;;;;;6208048;23;20579;-49
2022/04/23 08:23:02;;;;;;;1.27;0.82;;;;;;;;;;6208909;23;20043;-46
2022/04/23 08:25:28;;;;;;;1.42;0.90;;;;;;;;;;6207780;23;20361;-50
2022/04/23 08:30:34;;;;;;;1.50;0.77;;;;;;;;;;6209028;23;20001;-46
2022/04/23 08:30:47;;;;;;;2.00;1.17;;;;;;;;;;6208018;23;20045;-48
2022/04/23 08:33:13;;;;;;;2.50;1.23;;;;;;;;;;6207956;23;20004;-48
2022/04/23 08:35:40;;;;;;;2.40;1.00;;;;;;;;;;6209047;23;20525;-47
2022/04/23 08:38:06;;;;;;;1.90;0.88;;;;;;;;;;6208419;23;20036;-46
2022/04/23 08:40:37;;;;;;;1.02;0.77;;;;;;;;;;6208382;23;20001;-49
2022/04/23 08:43:03;;;;;;;1.92;0.88;;;;;;;;;;6208275;23;20009;-47
2022/04/23 08:45:32;;;;;;;1.55;0.70;;;;;;;;;;6207928;23;20001;-50
2022/04/23 08:47:59;;;;;;;0.85;0.65;;;;;;;;;;6208870;23;20005;-45
2022/04/23 08:50:26;;;;;;;1.05;0.60;;;;;;;;;;6208927;23;20000;-47
2022/04/23 08:52:57;;;;;;;0.90;0.70;;;;;;;;;;6207832;23;20000;-48
2022/04/23 08:55:26;;;;;;;0.57;0.40;;;;;;;;;;6209100;23;20011;-50
2022/04/23 08:57:52;;;;;;;0.85;0.60;;;;;;;;;;6207460;23;20418;-51
2022/04/23 09:00:18;;;;;;;0.80;0.60;;;;;;;;;;6208307;23;20009;-50
2022/04/23 09:02:44;;;;;;;0.60;0.60;;;;;;;;;;6207816;23;20016;-48
2022/04/23 09:05:14;;;;;;;0.65;0.50;;;;;;;;;;6208523;23;20434;-49
2022/04/23 09:07:40;;;;;;;0.90;0.70;;;;;;;;;;6207463;23;20015;-49
2022/04/23 09:10:07;;;;;;;0.65;0.57;;;;;;;;;;6208228;23;20005;-49
2022/04/23 09:12:33;;;;;;;0.50;0.50;;;;;;;;;;6207426;23;20291;-47
2022/04/23 09:23:38;;;;;;;0.55;0.50;;;;;;;;;;6180291;23;20377;-48
2022/04/23 09:23:40;;;;;;;1.15;0.75;;;;;;;;;;6205955;23;20507;-47
2022/04/23 09:26:20;;;;;;;0.60;0.60;;;;;;;;;;6207966;23;20013;-49
2022/04/23 09:28:48;;;;;;;0.47;0.47;;;;;;;;;;6207614;23;20389;-49
2022/04/23 09:31:18;;;;;;;0.60;0.50;;;;;;;;;;6207819;23;20058;-47
2022/04/23 09:33:46;;;;;;;1.08;0.60;;;;;;;;;;6207228;23;20008;-46
2022/04/23 09:36:13;;;;;;;1.00;0.80;;;;;;;;;;6207241;23;20438;-46
2022/04/23 09:38:40;;;;;;;0.77;0.60;;;;;;;;;;6207586;23;20000;-46
2022/04/23 09:41:21;;;;;;;0.55;0.55;;;;;;;;;;6207800;23;20000;-48
2022/04/23 09:44:05;;;;;;;1.02;0.50;;;;;;;;;;6207284;23;20055;-46
2022/04/23 09:46:44;;;;;;;0.98;0.80;;;;;;;;;;6207595;23;20000;-46
2022/04/23 09:49:11;;;;;;;1.35;0.68;;;;;;;;;;6207080;23;20028;-49
2022/04/23 09:51:37;;;;;;;0.45;0.45;;;;;;;;;;6206882;23;20000;-50
2022/04/23 09:54:04;;;;;;;0.88;0.57;;;;;;;;;;6207640;23;20083;-48
2022/04/23 09:56:30;;;;;;;0.75;0.60;;;;;;;;;;6206954;23;20027;-50
2022/04/23 09:58:56;;;;;;;1.00;0.80;;;;;;;;;;6208265;23;20019;-46
2022/04/23 10:01:23;;;;;;;1.00;0.90;;;;;;;;;;6206540;23;20040;-49
2022/04/23 10:03:54;;;;;;;1.23;0.68;;;;;;;;;;6207038;23;20004;-47
2022/04/23 10:06:20;;;;;;;2.50;1.02;;;;;;;;;;6207587;23;20326;-47
2022/04/23 10:08:49;;;;;;;0.98;0.80;;;;;;;;;;6207138;23;20248;-49
2022/04/23 10:11:17;;;;;;;1.50;1.00;;;;;;;;;;6206766;23;20005;-47
2022/04/23 10:13:45;;;;;;;0.70;0.70;;;;;;;;;;6206493;23;20088;-50
2022/04/23 10:16:13;;;;;;;0.70;0.70;;;;;;;;;;6206191;23;20051;-50
2022/04/23 10:18:39;;;;;;;0.63;0.60;;;;;;;;;;6206198;23;20009;-47
2022/04/23 10:21:09;;;;;;;0.60;0.60;;;;;;;;;;6207327;23;20008;-49
2022/04/23 10:23:42;;;;;;;0.73;0.60;;;;;;;;;;6207033;23;20004;-50
2022/04/23 10:26:29;;;;;;;1.08;0.60;;;;;;;;;;6204346;23;20438;-47
2022/04/23 10:28:56;;;;;;;0.70;0.60;;;;;;;;;;6207121;23;20005;-47
2022/04/23 10:31:23;;;;;;;0.90;0.60;;;;;;;;;;6205718;23;20004;-48
2022/04/23 10:33:51;;;;;;;0.70;0.70;;;;;;;;;;6206570;23;20039;-48
2022/04/23 10:36:18;;;;;;;1.30;0.80;;;;;;;;;;6207198;23;20008;-50
2022/04/23 10:38:45;;;;;;;1.13;0.85;;;;;;;;;;6206614;23;20368;-47
2022/04/23 10:41:13;;;;;;;0.60;0.50;;;;;;;;;;6206289;23;20517;-50
2022/04/23 10:43:49;;;;;;;0.50;0.50;;;;;;;;;;6207401;23;20024;-50
2022/04/23 10:46:35;;;;;;;0.95;0.68;;;;;;;;;;6207775;23;19996;-48
2022/04/23 10:49:19;;;;;;;0.77;0.60;;;;;;;;;;6208551;23;20005;-48
2022/04/23 10:51:46;;;;;;;0.77;0.70;;;;;;;;;;6208061;23;20000;-49
2022/04/23 10:54:16;;;;;;;0.88;0.60;;;;;;;;;;6208220;23;20051;-51
2022/04/23 10:56:42;;;;;;;0.98;0.70;;;;;;;;;;6207863;23;20083;-47
2022/04/23 10:59:29;;;;;;;1.20;0.65;;;;;;;;;;6207830;23;20084;-47
2022/04/23 11:02:02;;;;;;;0.40;0.40;;;;;;;;;;6204825;23;20025;-50
2022/04/23 11:04:28;;;;;;;0.47;0.47;;;;;;;;;;6207132;23;20004;-49
2022/04/23 11:12:18;;;;;;;0.85;0.50;;;;;;;;;;6207174;23;20065;-47
2022/04/23 11:14:46;;;;;;;0.60;0.52;;;;;;;;;;6180766;23;20047;-49
2022/04/23 11:17:17;;;;;;;0.52;0.40;;;;;;;;;;6207179;23;20001;-47
2022/04/23 11:19:45;;;;;;;0.40;0.30;;;;;;;;;;6207647;23;20007;-46
2022/04/23 11:22:12;;;;;;;2.22;0.55;;;;;;;;;;6207480;23;20080;-49
2022/04/23 11:24:39;;;;;;;0.73;0.40;;;;;;;;;;6207614;23;20000;-48
2022/04/23 11:27:06;;;;;;;1.40;0.57;;;;;;;;;;6207599;23;20055;-48
2022/04/23 11:29:33;;;;;;;0.40;0.40;;;;;;;;;;6181100;23;20378;-50
2022/04/23 11:31:58;;;;;;;0.30;0.30;;;;;;;;;;6208732;23;20072;-51
2022/04/23 11:34:27;;;;;;;0.52;0.50;;;;;;;;;;6207942;23;20405;-49
2022/04/23 11:36:53;;;;;;;0.30;0.30;;;;;;;;;;6208174;23;20079;-46
2022/04/23 11:39:27;;;;;;;0.60;0.40;;;;;;;;;;6207800;23;20005;-50
2022/04/23 11:41:53;;;;;;;0.30;0.30;;;;;;;;;;6207607;23;20005;-48
2022/04/23 11:47:06;;;;;;;0.75;0.63;;;;;;;;;;6207877;23;20020;-50
2022/04/23 11:49:32;;;;;;;0.30;0.30;;;;;;;;;;6206453;23;20001;-50
2022/04/23 11:52:05;;;;;;;0.45;0.30;;;;;;;;;;6208172;23;20016;-48
2022/04/23 11:54:41;;;;;;;0.82;0.32;;;;;;;;;;6208903;23;20005;-47
2022/04/23 11:57:08;;;;;;;0.50;0.30;;;;;;;;;;6210028;23;20055;-47
2022/04/23 11:59:38;;;;;;;0.80;0.30;;;;;;;;;;6208376;23;20016;-50
2022/04/23 12:02:24;;;;;;;0.32;0.32;;;;;;;;;;6209345;23;20044;-49
2022/04/23 12:04:52;;;;;;;0.75;0.75;;;;;;;;;;6209728;23;20027;-46
2022/04/23 12:07:19;;;;;;;0.60;0.50;;;;;;;;;;6209169;23;20076;-48
2022/04/23 12:09:45;;;;;;;0.77;0.40;;;;;;;;;;6208977;23;20361;-48
2022/04/23 12:12:15;;;;;;;0.30;0.30;;;;;;;;;;6209270;23;20004;-50
2022/04/23 12:14:48;;;;;;;0.40;0.40;;;;;;;;;;6209123;23;20039;-47
2022/04/23 12:17:27;;;;;;;0.30;0.30;;;;;;;;;;6208848;23;20080;-46
2022/04/23 12:19:54;;;;;;;0.80;0.40;;;;;;;;;;6209781;23;20009;-49
2022/04/23 12:22:25;;;;;;;1.45;0.40;;;;;;;;;;6209170;23;20099;-47
2022/04/23 12:24:51;;;;;;;0.30;0.30;;;;;;;;;;6206645;23;20476;-47
2022/04/23 12:27:17;;;;;;;0.28;0.28;;;;;;;;;;6210741;23;20002;-50
2022/04/23 12:40:57;;;;;;;0.30;0.30;;;;;;;;;;6208476;23;20016;-50
2022/04/23 12:43:33;;;;;;;0.70;0.35;;;;;;;;;;6208373;23;20073;-51
2022/04/23 12:46:06;;;;;;;0.73;0.40;;;;;;;;;;6209273;23;20011;-50
2022/04/23 12:48:33;;;;;;;0.38;0.30;;;;;;;;;;6182684;23;20007;-46
2022/04/23 12:51:06;;;;;;;0.30;0.30;;;;;;;;;;6209724;23;20501;-47
2022/04/23 12:53:36;;;;;;;0.20;0.20;;;;;;;;;;6207841;23;20051;-48
2022/04/23 12:56:05;;;;;;;0.63;0.40;;;;;;;;;;6209033;23;20005;-50
2022/04/23 12:58:31;;;;;;;0.30;0.30;;;;;;;;;;6208853;23;20326;-47
2022/04/23 13:00:58;;;;;;;0.30;0.30;;;;;;;;;;6209284;23;20032;-49
2022/04/23 13:03:40;;;;;;;0.50;0.47;;;;;;;;;;6179470;23;20020;-47
2022/04/23 13:08:54;;;;;;;0.30;0.30;;;;;;;;;;6179051;23;20005;-48
2022/04/23 13:08:56;;;;;;;0.40;0.40;;;;;;;;;;6178641;23;20005;-50
2022/04/23 13:11:33;;;;;;;0.30;0.30;;;;;;;;;;6179142;23;20339;-50
2022/04/23 13:14:03;;;;;;;1.38;0.22;;;;;;;;;;6179416;23;20008;-47
2022/04/23 13:16:30;;;;;;;0.30;0.30;;;;;;;;;;6178632;23;20072;-49
2022/04/23 13:18:58;;;;;;;0.30;0.30;;;;;;;;;;6178126;23;20001;-47
2022/04/23 13:21:24;;;;;;;0.47;0.30;;;;;;;;;;6179136;23;20498;-45
2022/04/23 13:23:52;;;;;;;0.40;0.40;;;;;;;;;;6178328;23;20080;-45
2022/04/23 13:26:19;;;;;;;0.40;0.40;;;;;;;;;;6179154;23;20001;-48
2022/04/23 13:28:45;;;;;;;0.30;0.30;;;;;;;;;;6178369;23;20025;-46
2022/04/23 13:31:12;;;;;;;0.30;0.30;;;;;;;;;;6179482;23;20028;-48
2022/04/23 13:33:39;;;;;;;0.30;0.30;;;;;;;;;;6178731;23;20001;-48
2022/04/23 13:36:06;;;;;;;0.50;0.50;;;;;;;;;;6177969;23;20040;-44
2022/04/23 13:38:33;;;;;;;0.32;0.32;;;;;;;;;;6178430;23;20009;-46
2022/04/23 13:40:59;;;;;;;0.30;0.30;;;;;;;;;;6178733;23;20024;-44
2022/04/23 13:43:25;;;;;;;0.30;0.30;;;;;;;;;;6179109;23;20005;-45
2022/04/23 13:45:51;;;;;;;0.40;0.40;;;;;;;;;;6178104;23;20032;-49
2022/04/23 13:48:18;;;;;;;0.30;0.30;;;;;;;;;;6178495;23;20021;-48
2022/04/23 13:50:44;;;;;;;0.28;0.28;;;;;;;;;;6178795;23;20477;-49
2022/04/23 13:53:11;;;;;;;0.30;0.30;;;;;;;;;;6178184;23;20012;-48
2022/04/23 13:55:37;;;;;;;0.60;0.50;;;;;;;;;;6177723;23;20005;-46
2022/04/23 13:58:03;;;;;;;0.30;0.30;;;;;;;;;;6177856;23;20075;-47
2022/04/23 14:00:30;;;;;;;0.30;0.30;;;;;;;;;;6178196;23;20450;-48
2022/04/23 14:11:10;;;;;;;0.20;0.20;;;;;;;;;;6207594;23;20058;-49
2022/04/23 14:13:36;;;;;;;0.85;0.30;;;;;;;;;;6181899;23;20921;-49
2022/04/23 14:16:02;;;;;;;0.30;0.30;;;;;;;;;;6208427;23;20551;-49
2022/04/23 14:18:28;;;;;;;0.30;0.30;;;;;;;;;;6207213;23;20028;-47
2022/04/23 14:20:54;;;;;;;0.30;0.30;;;;;;;;;;6208520;23;20012;-45
2022/04/23 14:23:20;;;;;;;0.30;0.30;;;;;;;;;;6207170;23;20426;-45
2022/04/23 14:25:46;;;;;;;0.50;0.40;;;;;;;;;;6209151;23;20032;-50
2022/04/23 14:28:13;;;;;;;0.30;0.30;;;;;;;;;;6206492;23;20005;-46
2022/04/23 14:30:40;;;;;;;0.20;0.20;;;;;;;;;;6206988;23;20001;-46
2022/04/23 14:33:07;;;;;;;0.50;0.50;;;;;;;;;;6206791;23;20008;-50
2022/04/23 14:35:34;;;;;;;0.40;0.40;;;;;;;;;;6207337;23;20076;-45
2022/04/23 14:38:00;;;;;;;0.20;0.20;;;;;;;;;;6207396;23;20496;-47
2022/04/23 14:40:26;;;;;;;0.28;0.28;;;;;;;;;;6205839;23;20004;-45
2022/04/23 14:42:58;;;;;;;0.40;0.40;;;;;;;;;;6206767;23;20079;-49
2022/04/23 14:45:28;;;;;;;0.20;0.20;;;;;;;;;;6206891;23;20476;-46
2022/04/23 14:47:54;;;;;;;0.55;0.20;;;;;;;;;;6206807;23;20005;-46
2022/04/23 14:50:20;;;;;;;0.30;0.25;;;;;;;;;;6206787;23;20067;-46
2022/04/23 14:55:32;;;;;;;0.28;0.28;;;;;;;;;;6206950;23;20794;-49
2022/04/23 14:57:58;;;;;;;0.30;0.30;;;;;;;;;;6206773;23;20005;-48
2022/04/23 15:00:24;;;;;;;0.35;0.30;;;;;;;;;;6206913;23;20127;-47
2022/04/23 15:02:54;;;;;;;0.30;0.30;;;;;;;;;;6206658;23;20008;-46
2022/04/23 15:05:20;;;;;;;0.43;0.30;;;;;;;;;;6206691;23;20066;-47
2022/04/23 15:07:46;;;;;;;0.30;0.30;;;;;;;;;;6206873;23;20050;-46
2022/04/23 15:10:13;;;;;;;0.20;0.20;;;;;;;;;;6180480;23;20008;-46
2022/04/23 15:12:41;;;;;;;0.40;0.40;;;;;;;;;;6206563;23;20446;-50
2022/04/23 15:15:07;;;;;;;0.20;0.20;;;;;;;;;;6206944;23;20019;-49
2022/04/23 15:17:33;;;;;;;0.40;0.40;;;;;;;;;;6206211;23;20054;-50
2022/04/23 15:19:59;;;;;;;0.30;0.30;;;;;;;;;;6205877;23;20035;-50
2022/04/23 15:22:25;;;;;;;0.30;0.30;;;;;;;;;;6206403;23;20063;-50
2022/04/23 15:24:51;;;;;;;0.30;0.30;;;;;;;;;;6206410;23;20004;-49
2022/04/23 15:27:17;;;;;;;0.40;0.40;;;;;;;;;;6206649;23;20531;-47
2022/04/23 15:29:43;;;;;;;0.65;0.50;;;;;;;;;;6207098;23;20000;-50
2022/04/23 15:32:09;;;;;;;0.35;0.35;;;;;;;;;;6206474;23;20078;-49
2022/04/23 15:34:38;;;;;;;0.50;0.50;;;;;;;;;;6206342;23;20438;-49